createdAt,value
2024-01-29T00:00:12.208Z,-2.71
2024-01-29T00:02:38.864Z,-2.74
2024-01-29T00:05:05.701Z,-2.79
2024-01-29T00:07:32.225Z,-2.67
2024-01-29T00:09:58.790Z,-2.78
2024-01-29T00:12:25.701Z,-2.69
2024-01-29T00:14:52.431Z,-2.71
2024-01-29T00:17:19.230Z,-2.78
2024-01-29T00:19:46.005Z,-2.71
2024-01-29T00:22:12.569Z,-2.70
2024-01-29T00:24:39.131Z,-2.77
2024-01-29T00:27:05.666Z,-2.75
2024-01-29T00:29:32.184Z,-2.79
2024-01-29T00:31:59.468Z,-2.87
2024-01-29T00:34:26.083Z,-2.76
2024-01-29T00:36:52.704Z,-2.79
2024-01-29T00:39:19.846Z,-2.77
2024-01-29T00:41:46.427Z,-2.71
2024-01-29T00:44:12.938Z,-2.77
2024-01-29T00:46:40.226Z,-2.73
2024-01-29T00:49:07.987Z,-2.71
2024-01-29T00:51:34.828Z,-2.77
2024-01-29T00:54:01.351Z,-2.69
2024-01-29T00:56:27.830Z,-2.76
2024-01-29T00:58:54.295Z,-2.73
2024-01-29T01:01:20.936Z,-2.79
2024-01-29T01:03:47.573Z,-2.78
2024-01-29T01:06:14.170Z,-2.83
2024-01-29T01:08:40.833Z,-2.67
2024-01-29T01:11:08.392Z,-2.60
2024-01-29T01:13:34.985Z,-2.61
2024-01-29T01:16:01.579Z,-2.79
2024-01-29T01:18:28.318Z,-2.89
2024-01-29T01:20:54.868Z,-2.81
2024-01-29T01:23:21.370Z,-2.75
2024-01-29T01:25:47.914Z,-2.70
2024-01-29T01:28:14.490Z,-2.81
2024-01-29T01:30:41.166Z,-2.76
2024-01-29T01:33:07.803Z,-2.71
2024-01-29T01:35:34.336Z,-2.68
2024-01-29T01:38:00.857Z,-2.80
2024-01-29T01:40:27.591Z,-2.84
2024-01-29T01:42:54.198Z,-2.76
2024-01-29T01:45:20.855Z,-2.77
2024-01-29T01:47:47.362Z,-2.78
2024-01-29T01:50:13.852Z,-2.68
2024-01-29T01:52:41.319Z,-2.66
2024-01-29T01:55:08.271Z,-2.70
2024-01-29T01:57:34.926Z,-2.67
2024-01-29T02:00:01.561Z,-2.79
2024-01-29T02:02:28.081Z,-2.69
2024-01-29T02:04:54.644Z,-2.70
2024-01-29T02:07:21.333Z,-2.71
2024-01-29T02:09:48.267Z,-2.80
2024-01-29T02:12:14.764Z,-2.86
2024-01-29T02:14:41.323Z,-2.71
2024-01-29T02:17:07.896Z,-2.69
2024-01-29T02:19:34.679Z,-2.74
2024-01-29T02:22:01.301Z,-2.69
2024-01-29T02:24:28.107Z,-2.69
2024-01-29T02:26:54.705Z,-2.66
2024-01-29T02:29:21.224Z,-2.62
2024-01-29T02:31:47.717Z,-2.70
2024-01-29T02:34:14.653Z,-2.58
2024-01-29T02:36:41.711Z,-2.53
2024-01-29T02:39:09.233Z,-2.61
2024-01-29T02:41:36.262Z,-2.73
2024-01-29T02:44:02.939Z,-2.68
2024-01-29T02:46:29.486Z,-2.73
2024-01-29T02:48:56.122Z,-2.75
2024-01-29T02:51:22.788Z,-2.86
2024-01-29T02:53:49.336Z,-2.77
2024-01-29T02:56:15.860Z,-2.76
2024-01-29T02:58:42.361Z,-2.77
2024-01-29T03:01:10.293Z,-2.73
2024-01-29T03:03:37.158Z,-2.77
2024-01-29T03:06:04.048Z,-2.71
2024-01-29T03:08:30.594Z,-2.74
2024-01-29T03:10:57.145Z,-2.77
2024-01-29T03:13:23.676Z,-2.72
2024-01-29T03:15:50.804Z,-2.81
2024-01-29T03:18:17.540Z,-2.81
2024-01-29T03:20:44.222Z,-2.88
2024-01-29T03:23:11.549Z,-2.89
2024-01-29T03:25:38.199Z,-3.00
2024-01-29T03:28:05.536Z,-3.03
2024-01-29T03:30:32.199Z,-3.09
2024-01-29T03:32:58.857Z,-3.24
2024-01-29T03:35:25.407Z,-3.21
2024-01-29T03:37:51.992Z,-3.05
2024-01-29T03:40:19.133Z,-3.27
2024-01-29T03:42:45.733Z,-3.06
2024-01-29T03:45:12.269Z,-3.05
2024-01-29T03:47:38.816Z,-3.00
2024-01-29T03:50:06.930Z,-3.07
2024-01-29T03:52:33.609Z,-2.95
2024-01-29T03:55:00.411Z,-2.98
2024-01-29T03:57:27.146Z,-2.91
2024-01-29T03:59:57.561Z,-2.94
2024-01-29T04:02:25.105Z,-3.17
2024-01-29T04:04:52.543Z,-2.94
2024-01-29T04:07:19.452Z,-3.01
2024-01-29T04:09:46.139Z,-3.03
2024-01-29T04:12:12.761Z,-3.04
2024-01-29T04:14:39.265Z,-2.99
2024-01-29T04:17:07.696Z,-2.96
2024-01-29T04:19:34.402Z,-3.12
2024-01-29T04:22:01.126Z,-2.93
2024-01-29T04:24:29.609Z,-3.02
2024-01-29T04:26:56.516Z,-2.95
2024-01-29T04:29:23.126Z,-2.99
2024-01-29T04:31:49.831Z,-2.94
2024-01-29T04:34:16.506Z,-3.00
2024-01-29T04:36:43.130Z,-3.17
2024-01-29T04:39:10.130Z,-3.07
2024-01-29T04:41:36.740Z,-3.04
2024-01-29T04:44:03.914Z,-3.03
2024-01-29T04:46:30.430Z,-2.99
2024-01-29T04:48:57.123Z,-3.05
2024-01-29T04:51:24.282Z,-3.01
2024-01-29T04:53:50.922Z,-2.98
2024-01-29T04:56:17.594Z,-3.08
2024-01-29T04:58:44.193Z,-3.11
2024-01-29T05:01:11.247Z,-3.05
2024-01-29T05:03:38.034Z,-3.16
2024-01-29T05:06:05.354Z,-3.10
2024-01-29T05:08:31.885Z,-3.11
2024-01-29T05:10:58.445Z,-3.13
2024-01-29T05:13:25.022Z,-3.07
2024-01-29T05:15:51.649Z,-3.22
2024-01-29T05:18:18.468Z,-3.02
2024-01-29T05:20:44.991Z,-3.11
2024-01-29T05:23:11.472Z,-3.12
2024-01-29T05:25:37.957Z,-3.07
2024-01-29T05:28:04.808Z,-3.12
2024-01-29T05:30:31.394Z,-3.00
2024-01-29T05:32:58.019Z,-2.98
2024-01-29T05:35:24.896Z,-2.94
2024-01-29T05:37:51.426Z,-2.94
2024-01-29T05:40:18.117Z,-2.96
2024-01-29T05:42:44.725Z,-3.07
2024-01-29T05:45:11.255Z,-2.98
2024-01-29T05:47:38.402Z,-2.97
2024-01-29T05:50:07.163Z,-2.99
2024-01-29T05:52:33.896Z,-2.98
2024-01-29T05:55:00.556Z,-3.03
2024-01-29T05:57:27.276Z,-2.99
2024-01-29T05:59:54.235Z,-2.90
2024-01-29T06:02:20.918Z,-2.88
2024-01-29T06:04:47.680Z,-2.88
2024-01-29T06:07:14.290Z,-3.01
2024-01-29T06:09:40.887Z,-2.97
2024-01-29T06:12:07.644Z,-2.96
2024-01-29T06:14:34.183Z,-3.01
2024-01-29T06:17:00.808Z,-3.06
2024-01-29T06:19:27.481Z,-3.10
2024-01-29T06:21:54.187Z,-3.05
2024-01-29T06:24:20.791Z,-3.25
2024-01-29T06:26:49.137Z,-3.13
2024-01-29T06:29:16.427Z,-3.12
2024-01-29T06:31:43.059Z,-3.18
2024-01-29T06:34:10.153Z,-3.11
2024-01-29T06:36:36.959Z,-3.19
2024-01-29T06:39:04.128Z,-3.23
2024-01-29T06:41:32.184Z,-3.34
2024-01-29T06:43:59.120Z,-3.34
2024-01-29T06:46:26.156Z,-3.39
2024-01-29T06:48:52.828Z,-3.25
2024-01-29T06:51:19.467Z,-3.24
2024-01-29T06:53:46.099Z,-3.27
2024-01-29T06:56:12.662Z,-3.21
2024-01-29T06:58:39.260Z,-3.22
2024-01-29T07:01:06.638Z,-3.20
2024-01-29T07:03:33.819Z,-3.10
2024-01-29T07:06:00.709Z,-3.15
2024-01-29T07:08:27.325Z,-3.09
2024-01-29T07:10:53.888Z,-3.10
2024-01-29T07:13:20.408Z,-3.16
2024-01-29T07:15:47.049Z,-3.11
2024-01-29T07:18:13.569Z,-3.06
2024-01-29T07:20:41.251Z,-3.10
2024-01-29T07:23:08.793Z,-3.04
2024-01-29T07:25:35.901Z,-2.96
2024-01-29T07:28:05.667Z,-2.91
2024-01-29T07:30:32.582Z,-2.91
2024-01-29T07:32:59.565Z,-2.98
2024-01-29T07:35:26.354Z,-2.83
2024-01-29T07:37:53.801Z,-2.83
2024-01-29T07:40:23.252Z,-2.86
2024-01-29T07:42:50.469Z,-2.76
2024-01-29T07:45:17.526Z,-2.70
2024-01-29T07:47:45.632Z,-2.61
2024-01-29T07:50:12.320Z,-2.65
2024-01-29T07:52:38.853Z,-2.59
2024-01-29T07:55:05.868Z,-2.45
2024-01-29T07:57:32.523Z,-2.54
2024-01-29T07:59:59.089Z,-2.47
2024-01-29T08:02:25.783Z,-2.39
2024-01-29T08:04:52.510Z,-2.31
2024-01-29T08:07:19.238Z,-2.20
2024-01-29T08:09:46.433Z,-2.00
2024-01-29T08:12:13.052Z,-1.80
2024-01-29T08:14:40.139Z,-1.56
2024-01-29T08:17:07.065Z,-1.47
2024-01-29T08:19:33.770Z,-1.27
2024-01-29T08:22:00.504Z,-1.00
2024-01-29T08:24:28.010Z,-0.84
2024-01-29T08:26:54.626Z,-0.58
2024-01-29T08:29:23.518Z,-0.47
2024-01-29T08:31:50.057Z,-0.33
2024-01-29T08:40:01.847Z,0.10
2024-01-29T08:42:28.398Z,0.51
2024-01-29T08:45:01.188Z,0.65
2024-01-29T08:47:36.785Z,0.79
2024-01-29T08:50:12.745Z,0.85
2024-01-29T08:52:49.032Z,0.99
2024-01-29T08:55:25.910Z,1.13
2024-01-29T09:04:34.019Z,1.78
2024-01-29T09:07:30.566Z,1.74
2024-01-29T09:09:57.751Z,1.75
2024-01-29T09:12:29.245Z,1.76
2024-01-29T09:15:04.141Z,1.73
2024-01-29T09:17:47.302Z,1.79
2024-01-29T09:20:15.562Z,1.51
2024-01-29T09:22:48.656Z,1.69
2024-01-29T09:25:15.424Z,1.74
2024-01-29T09:27:42.110Z,1.64
2024-01-29T09:36:00.155Z,1.59
2024-01-29T09:38:27.014Z,1.37
2024-01-29T09:41:08.208Z,1.23
2024-01-29T09:44:08.740Z,1.44
2024-01-29T09:47:06.959Z,1.23
2024-01-29T09:49:49.290Z,1.09
2024-01-29T09:52:16.490Z,0.96
2024-01-29T09:54:43.404Z,1.10
2024-01-29T09:57:20.138Z,1.11
2024-01-29T09:59:46.629Z,1.13
2024-01-29T10:02:29.099Z,1.20
2024-01-29T10:04:56.505Z,1.28
2024-01-29T10:07:24.051Z,1.20
2024-01-29T10:09:53.903Z,1.30
2024-01-29T10:12:21.702Z,1.38
2024-01-29T10:14:48.238Z,1.27
2024-01-29T10:17:14.772Z,1.28
2024-01-29T10:19:44.515Z,1.35
2024-01-29T10:22:14.421Z,1.49
2024-01-29T10:24:41.146Z,1.50
2024-01-29T10:27:08.456Z,1.56
2024-01-29T10:29:48.471Z,1.57
2024-01-29T10:32:15.365Z,1.59
2024-01-29T10:34:42.320Z,1.63
2024-01-29T10:37:08.952Z,1.58
2024-01-29T10:39:43.527Z,1.63
2024-01-29T10:42:13.875Z,1.66
2024-01-29T10:44:41.143Z,1.69
2024-01-29T10:47:20.072Z,1.77
2024-01-29T10:49:46.749Z,1.91
2024-01-29T10:52:13.932Z,2.01
2024-01-29T10:54:40.730Z,1.96
2024-01-29T10:57:11.027Z,1.97
2024-01-29T10:59:39.911Z,2.04
2024-01-29T11:02:06.606Z,2.15
2024-01-29T11:04:36.299Z,2.16
2024-01-29T11:07:07.614Z,2.22
2024-01-29T11:09:34.209Z,2.28
2024-01-29T11:12:00.708Z,2.16
2024-01-29T11:14:27.326Z,2.40
2024-01-29T11:16:53.950Z,2.52
2024-01-29T11:19:25.361Z,2.66
2024-01-29T11:21:52.148Z,2.74
2024-01-29T11:24:22.166Z,2.81
2024-01-29T11:26:48.799Z,2.84
2024-01-29T11:29:19.395Z,2.91
2024-01-29T11:31:47.048Z,2.99
2024-01-29T11:34:15.284Z,3.02
2024-01-29T11:36:41.959Z,3.05
2024-01-29T11:39:09.983Z,3.10
2024-01-29T11:41:37.145Z,3.08
2024-01-29T11:44:04.143Z,3.14
2024-01-29T11:46:30.770Z,3.24
2024-01-29T11:48:57.904Z,3.23
2024-01-29T11:51:27.012Z,3.24
2024-01-29T11:53:53.529Z,3.22
2024-01-29T11:56:20.450Z,3.23
2024-01-29T11:58:59.349Z,3.28
2024-01-29T12:01:26.044Z,3.31
2024-01-29T12:03:52.736Z,3.34
2024-01-29T12:06:19.410Z,3.30
2024-01-29T12:08:49.919Z,3.49
2024-01-29T12:11:16.769Z,3.49
2024-01-29T12:13:43.431Z,3.53
2024-01-29T12:16:10.224Z,3.57
2024-01-29T12:18:39.451Z,3.60
2024-01-29T12:21:07.065Z,3.62
2024-01-29T12:23:33.601Z,3.69
2024-01-29T12:26:00.237Z,3.67
2024-01-29T12:28:27.793Z,3.62
2024-01-29T12:31:08.083Z,3.71
2024-01-29T12:33:36.124Z,3.66
2024-01-29T12:36:13.498Z,3.70
2024-01-29T12:38:41.054Z,3.64
2024-01-29T12:41:07.860Z,3.70
2024-01-29T12:43:35.115Z,3.65
2024-01-29T12:46:12.859Z,3.75
2024-01-29T12:48:39.945Z,3.81
2024-01-29T12:51:13.640Z,3.83
2024-01-29T12:53:41.917Z,3.86
2024-01-29T12:56:14.382Z,3.90
2024-01-29T12:58:47.965Z,3.92
2024-01-29T13:01:15.708Z,3.83
2024-01-29T13:03:42.371Z,3.85
2024-01-29T13:06:10.483Z,3.83
2024-01-29T13:08:37.179Z,3.82
2024-01-29T13:11:03.741Z,3.68
2024-01-29T13:13:30.401Z,3.85
2024-01-29T13:15:57.190Z,3.83
2024-01-29T13:18:26.493Z,3.88
2024-01-29T13:20:53.179Z,3.87
2024-01-29T13:23:19.711Z,3.86
2024-01-29T13:25:46.964Z,3.85
2024-01-29T13:28:13.570Z,3.90
2024-01-29T13:30:40.338Z,3.94
2024-01-29T13:33:08.021Z,3.84
2024-01-29T13:35:34.774Z,3.89
2024-01-29T13:38:01.281Z,3.87
2024-01-29T13:40:27.885Z,3.92
2024-01-29T13:42:56.105Z,3.97
2024-01-29T13:45:22.853Z,3.92
2024-01-29T13:47:51.024Z,3.97
2024-01-29T13:50:17.709Z,3.95
2024-01-29T13:52:44.287Z,3.91
2024-01-29T13:55:10.943Z,3.95
2024-01-29T13:57:37.488Z,3.95
2024-01-29T14:00:05.443Z,3.94
2024-01-29T14:02:35.996Z,3.92
2024-01-29T14:05:05.588Z,3.90
2024-01-29T14:07:33.421Z,3.93
2024-01-29T14:10:01.145Z,3.89
2024-01-29T14:12:27.928Z,3.91
2024-01-29T14:14:56.517Z,4.00
2024-01-29T14:17:23.510Z,3.96
2024-01-29T14:19:51.481Z,4.03
2024-01-29T14:22:21.537Z,4.08
2024-01-29T14:24:48.105Z,4.10
2024-01-29T14:27:14.675Z,4.11
2024-01-29T14:29:41.211Z,4.13
2024-01-29T14:32:07.754Z,4.15
2024-01-29T14:34:34.478Z,4.15
2024-01-29T14:37:01.270Z,4.13
2024-01-29T14:39:28.013Z,4.19
2024-01-29T14:41:54.482Z,4.22
2024-01-29T14:44:21.269Z,4.15
2024-01-29T14:46:47.773Z,4.15
2024-01-29T14:49:17.435Z,4.16
2024-01-29T14:51:44.887Z,4.16
2024-01-29T14:54:14.368Z,4.14
2024-01-29T14:56:41.089Z,4.13
2024-01-29T14:59:07.919Z,4.12
2024-01-29T15:01:37.152Z,4.00
2024-01-29T15:04:07.205Z,4.11
2024-01-29T15:06:35.761Z,4.09
2024-01-29T15:09:04.828Z,4.07
2024-01-29T15:11:31.487Z,4.01
2024-01-29T15:13:58.173Z,4.02
2024-01-29T15:16:24.861Z,3.97
2024-01-29T15:18:52.378Z,3.97
2024-01-29T15:21:19.260Z,3.92
2024-01-29T15:23:45.797Z,3.87
2024-01-29T15:26:14.359Z,3.87
2024-01-29T15:28:40.925Z,3.76
2024-01-29T15:31:07.547Z,3.80
2024-01-29T15:33:34.989Z,3.78
2024-01-29T15:36:01.948Z,3.70
2024-01-29T15:38:28.539Z,3.70
2024-01-29T15:40:55.270Z,3.65
2024-01-29T15:43:22.158Z,3.60
2024-01-29T15:45:48.843Z,3.56
2024-01-29T15:48:15.945Z,3.45
2024-01-29T15:50:42.744Z,3.47
2024-01-29T15:53:09.326Z,3.41
2024-01-29T15:55:35.957Z,3.34
2024-01-29T15:58:02.746Z,3.26
2024-01-29T16:00:34.457Z,3.23
2024-01-29T16:03:02.226Z,3.04
2024-01-29T16:05:28.857Z,3.05
2024-01-29T16:07:55.513Z,3.02
2024-01-29T16:10:22.168Z,2.97
2024-01-29T16:12:48.785Z,2.86
2024-01-29T16:15:16.158Z,2.84
2024-01-29T16:17:42.760Z,2.72
2024-01-29T16:20:09.623Z,2.64
2024-01-29T16:22:36.382Z,2.53
2024-01-29T16:25:03.065Z,2.49
2024-01-29T16:27:29.573Z,2.40
2024-01-29T16:29:56.931Z,2.35
2024-01-29T16:32:23.501Z,2.29
2024-01-29T16:34:50.127Z,2.20
2024-01-29T16:37:17.060Z,2.09
2024-01-29T16:39:43.777Z,1.86
2024-01-29T16:42:10.534Z,1.81
2024-01-29T16:44:37.038Z,1.80
2024-01-29T16:47:03.609Z,1.78
2024-01-29T16:49:30.170Z,1.71
2024-01-29T16:51:56.838Z,1.66
2024-01-29T16:54:24.472Z,1.63
2024-01-29T16:56:51.915Z,1.60
2024-01-29T16:59:18.584Z,1.57
2024-01-29T17:01:46.800Z,1.54
2024-01-29T17:04:13.808Z,1.49
2024-01-29T17:06:40.569Z,1.37
2024-01-29T17:09:11.752Z,1.37
2024-01-29T17:11:38.667Z,1.33
2024-01-29T17:14:05.825Z,1.27
2024-01-29T17:16:32.517Z,1.28
2024-01-29T17:18:59.256Z,1.22
2024-01-29T17:21:25.940Z,1.21
2024-01-29T17:23:52.514Z,1.21
2024-01-29T17:26:19.630Z,1.16
2024-01-29T17:28:46.273Z,1.12
2024-01-29T17:31:12.852Z,0.96
2024-01-29T17:33:39.589Z,1.07
2024-01-29T17:36:06.517Z,1.07
2024-01-29T17:38:33.151Z,1.09
2024-01-29T17:40:59.929Z,1.02
2024-01-29T17:43:26.869Z,1.07
2024-01-29T17:45:53.495Z,1.07
2024-01-29T17:48:20.458Z,0.99
2024-01-29T17:50:47.220Z,0.97
2024-01-29T17:53:13.850Z,0.95
2024-01-29T17:55:40.371Z,0.91
2024-01-29T17:58:06.972Z,0.88
2024-01-29T18:00:33.670Z,0.88
2024-01-29T18:03:00.454Z,0.82
2024-01-29T18:05:27.224Z,0.85
2024-01-29T18:07:53.892Z,0.82
2024-01-29T18:10:20.614Z,0.75
2024-01-29T18:12:47.198Z,0.66
2024-01-29T18:15:13.784Z,0.60
2024-01-29T18:17:40.465Z,0.64
2024-01-29T18:20:08.229Z,0.65
2024-01-29T18:22:34.836Z,0.64
2024-01-29T18:25:01.527Z,0.67
2024-01-29T18:27:28.033Z,0.65
2024-01-29T18:29:54.610Z,0.63
2024-01-29T18:32:21.154Z,0.59
2024-01-29T18:34:47.999Z,0.56
2024-01-29T18:37:14.726Z,0.48
2024-01-29T18:39:41.286Z,0.47
2024-01-29T18:42:08.369Z,0.43
2024-01-29T18:44:35.057Z,0.44
2024-01-29T18:47:01.977Z,0.45
2024-01-29T18:49:28.617Z,0.49
2024-01-29T18:52:02.838Z,0.46
2024-01-29T18:54:29.342Z,0.38
2024-01-29T18:56:55.820Z,0.40
2024-01-29T18:59:22.300Z,0.34
2024-01-29T19:01:49.054Z,0.35
2024-01-29T19:04:15.752Z,0.32
2024-01-29T19:06:42.532Z,0.25
2024-01-29T19:09:10.931Z,0.28
2024-01-29T19:11:41.200Z,0.32
2024-01-29T19:14:07.854Z,0.37
2024-01-29T19:16:34.399Z,0.29
2024-01-29T19:19:01.106Z,0.30
2024-01-29T19:21:27.721Z,0.26
2024-01-29T19:23:54.226Z,0.21
2024-01-29T19:26:20.718Z,0.21
2024-01-29T19:28:47.225Z,0.19
2024-01-29T19:31:15.851Z,0.15
2024-01-29T19:33:43.218Z,0.13
2024-01-29T19:36:09.839Z,0.16
2024-01-29T19:38:36.381Z,0.12
2024-01-29T19:41:03.723Z,0.09
2024-01-29T19:43:30.374Z,-0.02
2024-01-29T19:45:57.332Z,-0.00
2024-01-29T19:48:23.986Z,-0.05
2024-01-29T19:50:50.586Z,-0.07
2024-01-29T19:53:17.107Z,-0.16
2024-01-29T19:55:43.597Z,-0.10
2024-01-29T19:58:10.317Z,-0.16
2024-01-29T20:00:36.918Z,-0.22
2024-01-29T20:03:03.683Z,-0.16
2024-01-29T20:05:30.330Z,-0.18
2024-01-29T20:07:56.982Z,-0.12
2024-01-29T20:10:23.777Z,-0.24
2024-01-29T20:12:51.151Z,-0.04
2024-01-29T20:15:17.744Z,-0.08
2024-01-29T20:17:44.289Z,-0.06
2024-01-29T20:20:12.275Z,-0.03
2024-01-29T20:22:38.909Z,-0.02
2024-01-29T20:25:05.832Z,-0.12
2024-01-29T20:27:32.358Z,-0.10
2024-01-29T20:29:58.965Z,-0.06
2024-01-29T20:32:26.002Z,-0.27
2024-01-29T20:34:52.913Z,-0.22
2024-01-29T20:37:19.718Z,-0.23
2024-01-29T20:39:46.385Z,-0.20
2024-01-29T20:42:12.997Z,-0.19
2024-01-29T20:44:39.588Z,-0.24
2024-01-29T20:47:06.227Z,-0.36
2024-01-29T20:49:33.599Z,-0.41
2024-01-29T20:52:01.652Z,-0.44
2024-01-29T20:54:28.348Z,-0.48
2024-01-29T20:57:00.991Z,-0.56
2024-01-29T20:59:28.293Z,-0.43
2024-01-29T21:01:54.928Z,-0.41
2024-01-29T21:04:22.427Z,-0.46
2024-01-29T21:06:49.400Z,-0.46
2024-01-29T21:09:15.931Z,-0.42
2024-01-29T21:11:43.371Z,-0.43
2024-01-29T21:14:11.721Z,-0.49
2024-01-29T21:16:38.258Z,-0.55
2024-01-29T21:19:04.866Z,-0.60
2024-01-29T21:21:32.494Z,-0.59
2024-01-29T21:24:00.043Z,-0.60
2024-01-29T21:26:27.095Z,-0.58
2024-01-29T21:28:53.897Z,-0.58
2024-01-29T21:31:20.601Z,-0.62
2024-01-29T21:33:47.276Z,-0.60
2024-01-29T21:36:15.794Z,-0.60
2024-01-29T21:38:42.298Z,-0.66
2024-01-29T21:41:08.808Z,-0.63
2024-01-29T21:43:35.334Z,-0.63
2024-01-29T21:46:01.961Z,-0.59
2024-01-29T21:48:28.632Z,-0.59
2024-01-29T21:50:55.251Z,-0.65
2024-01-29T21:53:21.752Z,-0.69
2024-01-29T21:55:48.589Z,-0.69
2024-01-29T21:58:15.159Z,-0.72
2024-01-29T22:00:41.764Z,-0.75
2024-01-29T22:03:08.321Z,-0.80
2024-01-29T22:05:34.912Z,-0.79
2024-01-29T22:08:01.586Z,-0.86
2024-01-29T22:10:28.325Z,-0.84
2024-01-29T22:12:54.996Z,-0.83
2024-01-29T22:15:21.562Z,-0.93
2024-01-29T22:17:48.176Z,-0.98
2024-01-29T22:20:15.015Z,-1.00
2024-01-29T22:22:42.313Z,-1.07
2024-01-29T22:25:08.961Z,-1.03
2024-01-29T22:27:35.578Z,-1.03
2024-01-29T22:30:02.107Z,-1.07
2024-01-29T22:32:28.620Z,-1.05
2024-01-29T22:34:55.262Z,-1.08
2024-01-29T22:37:22.349Z,-1.08
2024-01-29T22:39:48.969Z,-1.14
2024-01-29T22:42:15.638Z,-1.17
2024-01-29T22:44:42.161Z,-1.14
2024-01-29T22:47:10.184Z,-1.18
2024-01-29T22:49:36.886Z,-1.26
2024-01-29T22:52:03.680Z,-1.19
2024-01-29T22:54:30.181Z,-1.20
2024-01-29T22:56:56.658Z,-1.22
2024-01-29T22:59:23.184Z,-1.32
2024-01-29T23:01:49.851Z,-1.28
2024-01-29T23:04:16.696Z,-1.30
2024-01-29T23:06:43.358Z,-1.30
2024-01-29T23:09:10.264Z,-1.26
2024-01-29T23:11:36.766Z,-1.26
2024-01-29T23:14:03.251Z,-1.30
2024-01-29T23:16:29.781Z,-1.33
2024-01-29T23:18:56.273Z,-1.38
2024-01-29T23:21:22.771Z,-1.41
2024-01-29T23:23:49.394Z,-1.50
2024-01-29T23:26:15.878Z,-1.42
2024-01-29T23:28:42.392Z,-1.47
2024-01-29T23:31:09.076Z,-1.52
2024-01-29T23:33:35.659Z,-1.52
2024-01-29T23:36:02.218Z,-1.57
2024-01-29T23:38:28.767Z,-1.57
2024-01-29T23:40:55.401Z,-1.56
2024-01-29T23:43:22.507Z,-1.61
2024-01-29T23:45:49.280Z,-1.67
2024-01-29T23:48:16.022Z,-1.67
2024-01-29T23:50:42.764Z,-1.69
2024-01-29T23:53:09.250Z,-1.71
2024-01-29T23:55:35.750Z,-1.68
2024-01-29T23:58:04.281Z,-1.71
